Terminal Aerodrome Forecast
Issued by NWS

Home | Current Version | Previous Version | Graphics & Text | Print | Product List | Glossary On
Versions: 1 2 3 4 5 6 7 8 9 10 11 12 13 14 15 16 17 18 19 20 21 22 23
408
FTUS43 KICT 231138
TAFHUT
TAF
KHUT 231138Z 2312/2412 17013KT P6SM OVC020
     FM231700 17016G23KT P6SM BKN035
     FM232300 17016G25KT P6SM VCTS SCT025 BKN060CB
     FM240500 17012G24KT P6SM VCSH BKN025=

USA.gov is the U.S. government's official web portal to all federal, state and local government web resources and services.